sensor_id;sensor_type;location;lat;lon;timestamp;P1;durP1;ratioP1;P2;durP2;ratioP2
22026;SDS011;11177;50.966;10.070;2024-02-16T00:02:02;7.55;;;2.40;;
22026;SDS011;11177;50.966;10.070;2024-02-16T00:04:29;4.43;;;2.40;;
22026;SDS011;11177;50.966;10.070;2024-02-16T00:06:57;5.43;;;2.50;;
22026;SDS011;11177;50.966;10.070;2024-02-16T00:09:24;5.45;;;2.30;;
22026;SDS011;11177;50.966;10.070;2024-02-16T00:11:51;5.95;;;2.53;;
22026;SDS011;11177;50.966;10.070;2024-02-16T00:14:19;4.30;;;2.42;;
22026;SDS011;11177;50.966;10.070;2024-02-16T00:16:47;5.45;;;2.40;;
22026;SDS011;11177;50.966;10.070;2024-02-16T00:19:14;6.85;;;2.60;;
22026;SDS011;11177;50.966;10.070;2024-02-16T00:21:41;4.47;;;2.60;;
22026;SDS011;11177;50.966;10.070;2024-02-16T00:24:09;7.40;;;2.08;;
22026;SDS011;11177;50.966;10.070;2024-02-16T00:26:37;4.65;;;2.50;;
22026;SDS011;11177;50.966;10.070;2024-02-16T00:29:06;6.50;;;2.60;;
22026;SDS011;11177;50.966;10.070;2024-02-16T00:31:33;3.08;;;1.95;;
22026;SDS011;11177;50.966;10.070;2024-02-16T00:34:00;4.18;;;2.38;;
22026;SDS011;11177;50.966;10.070;2024-02-16T00:36:28;2.88;;;2.35;;
22026;SDS011;11177;50.966;10.070;2024-02-16T00:38:57;4.25;;;2.40;;
22026;SDS011;11177;50.966;10.070;2024-02-16T00:41:25;6.60;;;2.50;;
22026;SDS011;11177;50.966;10.070;2024-02-16T00:43:52;5.53;;;2.60;;
22026;SDS011;11177;50.966;10.070;2024-02-16T00:46:19;5.18;;;2.50;;
22026;SDS011;11177;50.966;10.070;2024-02-16T00:48:46;5.45;;;2.30;;
22026;SDS011;11177;50.966;10.070;2024-02-16T00:51:14;6.32;;;2.70;;
22026;SDS011;11177;50.966;10.070;2024-02-16T00:53:41;7.50;;;2.67;;
22026;SDS011;11177;50.966;10.070;2024-02-16T00:56:08;4.50;;;2.53;;
22026;SDS011;11177;50.966;10.070;2024-02-16T00:58:35;3.63;;;2.55;;
22026;SDS011;11177;50.966;10.070;2024-02-16T01:01:03;5.13;;;2.40;;
22026;SDS011;11177;50.966;10.070;2024-02-16T01:03:31;4.25;;;2.17;;
22026;SDS011;11177;50.966;10.070;2024-02-16T01:05:58;5.55;;;2.50;;
22026;SDS011;11177;50.966;10.070;2024-02-16T01:08:25;3.30;;;2.45;;
22026;SDS011;11177;50.966;10.070;2024-02-16T01:10:54;5.57;;;2.53;;
22026;SDS011;11177;50.966;10.070;2024-02-16T01:13:23;4.05;;;2.50;;
22026;SDS011;11177;50.966;10.070;2024-02-16T01:15:50;4.07;;;2.70;;
22026;SDS011;11177;50.966;10.070;2024-02-16T01:18:17;4.78;;;2.55;;
22026;SDS011;11177;50.966;10.070;2024-02-16T01:20:44;5.18;;;2.75;;
22026;SDS011;11177;50.966;10.070;2024-02-16T01:23:12;4.50;;;2.47;;
22026;SDS011;11177;50.966;10.070;2024-02-16T01:25:38;4.43;;;2.60;;
22026;SDS011;11177;50.966;10.070;2024-02-16T01:28:05;6.05;;;3.08;;
22026;SDS011;11177;50.966;10.070;2024-02-16T01:30:32;5.68;;;2.85;;
22026;SDS011;11177;50.966;10.070;2024-02-16T01:33:00;4.15;;;2.90;;
22026;SDS011;11177;50.966;10.070;2024-02-16T01:35:27;8.65;;;3.17;;
22026;SDS011;11177;50.966;10.070;2024-02-16T01:37:54;5.75;;;3.17;;
22026;SDS011;11177;50.966;10.070;2024-02-16T01:40:21;5.43;;;2.90;;
22026;SDS011;11177;50.966;10.070;2024-02-16T01:42:48;4.18;;;2.90;;
22026;SDS011;11177;50.966;10.070;2024-02-16T01:45:15;3.75;;;2.72;;
22026;SDS011;11177;50.966;10.070;2024-02-16T01:47:43;5.68;;;3.15;;
22026;SDS011;11177;50.966;10.070;2024-02-16T01:50:10;7.97;;;3.30;;
22026;SDS011;11177;50.966;10.070;2024-02-16T01:52:38;5.70;;;3.10;;
22026;SDS011;11177;50.966;10.070;2024-02-16T01:55:05;3.88;;;3.25;;
22026;SDS011;11177;50.966;10.070;2024-02-16T01:57:45;4.55;;;2.90;;
22026;SDS011;11177;50.966;10.070;2024-02-16T02:00:13;4.80;;;3.00;;
22026;SDS011;11177;50.966;10.070;2024-02-16T02:02:47;4.90;;;3.25;;
22026;SDS011;11177;50.966;10.070;2024-02-16T02:05:14;6.85;;;3.25;;
22026;SDS011;11177;50.966;10.070;2024-02-16T02:07:42;6.05;;;3.22;;
22026;SDS011;11177;50.966;10.070;2024-02-16T02:10:09;8.98;;;3.50;;
22026;SDS011;11177;50.966;10.070;2024-02-16T02:12:39;6.97;;;3.50;;
22026;SDS011;11177;50.966;10.070;2024-02-16T02:15:08;8.52;;;3.80;;
22026;SDS011;11177;50.966;10.070;2024-02-16T02:17:35;5.75;;;3.60;;
22026;SDS011;11177;50.966;10.070;2024-02-16T02:20:02;10.50;;;3.95;;
22026;SDS011;11177;50.966;10.070;2024-02-16T02:22:38;5.75;;;3.33;;
22026;SDS011;11177;50.966;10.070;2024-02-16T02:25:06;6.68;;;3.40;;
22026;SDS011;11177;50.966;10.070;2024-02-16T02:27:33;6.57;;;3.85;;
22026;SDS011;11177;50.966;10.070;2024-02-16T02:30:00;6.13;;;4.30;;
22026;SDS011;11177;50.966;10.070;2024-02-16T02:32:27;6.05;;;4.10;;
22026;SDS011;11177;50.966;10.070;2024-02-16T02:34:55;6.45;;;3.90;;
22026;SDS011;11177;50.966;10.070;2024-02-16T02:37:22;6.68;;;4.07;;
22026;SDS011;11177;50.966;10.070;2024-02-16T02:39:49;5.97;;;4.20;;
22026;SDS011;11177;50.966;10.070;2024-02-16T02:42:16;5.63;;;3.85;;
22026;SDS011;11177;50.966;10.070;2024-02-16T02:44:43;5.90;;;3.90;;
22026;SDS011;11177;50.966;10.070;2024-02-16T02:47:16;6.40;;;3.92;;
22026;SDS011;11177;50.966;10.070;2024-02-16T02:49:44;5.18;;;3.90;;
22026;SDS011;11177;50.966;10.070;2024-02-16T02:52:11;5.45;;;4.00;;
22026;SDS011;11177;50.966;10.070;2024-02-16T02:54:38;6.53;;;3.92;;
22026;SDS011;11177;50.966;10.070;2024-02-16T02:57:05;5.47;;;4.18;;
22026;SDS011;11177;50.966;10.070;2024-02-16T02:59:32;7.03;;;3.80;;
22026;SDS011;11177;50.966;10.070;2024-02-16T03:01:59;4.82;;;3.42;;
22026;SDS011;11177;50.966;10.070;2024-02-16T03:04:27;4.55;;;3.35;;
22026;SDS011;11177;50.966;10.070;2024-02-16T03:06:54;7.25;;;4.50;;
22026;SDS011;11177;50.966;10.070;2024-02-16T03:09:21;8.95;;;4.68;;
22026;SDS011;11177;50.966;10.070;2024-02-16T03:11:49;7.15;;;4.47;;
22026;SDS011;11177;50.966;10.070;2024-02-16T03:14:19;8.43;;;4.50;;
22026;SDS011;11177;50.966;10.070;2024-02-16T03:16:46;8.98;;;4.72;;
22026;SDS011;11177;50.966;10.070;2024-02-16T03:19:13;5.60;;;4.63;;
22026;SDS011;11177;50.966;10.070;2024-02-16T03:21:41;7.25;;;4.57;;
22026;SDS011;11177;50.966;10.070;2024-02-16T03:24:08;5.47;;;4.40;;
22026;SDS011;11177;50.966;10.070;2024-02-16T03:26:35;7.38;;;4.45;;
22026;SDS011;11177;50.966;10.070;2024-02-16T03:29:03;10.18;;;4.72;;
22026;SDS011;11177;50.966;10.070;2024-02-16T03:31:30;7.35;;;4.25;;
22026;SDS011;11177;50.966;10.070;2024-02-16T03:33:57;6.20;;;4.03;;
22026;SDS011;11177;50.966;10.070;2024-02-16T03:36:25;9.70;;;4.50;;
22026;SDS011;11177;50.966;10.070;2024-02-16T03:38:52;6.18;;;3.92;;
22026;SDS011;11177;50.966;10.070;2024-02-16T03:41:19;4.72;;;3.65;;
22026;SDS011;11177;50.966;10.070;2024-02-16T03:43:47;5.63;;;4.10;;
22026;SDS011;11177;50.966;10.070;2024-02-16T03:46:14;6.43;;;3.88;;
22026;SDS011;11177;50.966;10.070;2024-02-16T03:48:41;6.38;;;3.83;;
22026;SDS011;11177;50.966;10.070;2024-02-16T03:51:09;10.35;;;3.78;;
22026;SDS011;11177;50.966;10.070;2024-02-16T03:53:36;5.60;;;3.72;;
22026;SDS011;11177;50.966;10.070;2024-02-16T03:56:03;6.55;;;4.00;;
22026;SDS011;11177;50.966;10.070;2024-02-16T03:58:32;7.07;;;3.33;;
22026;SDS011;11177;50.966;10.070;2024-02-16T04:00:59;6.45;;;3.60;;
22026;SDS011;11177;50.966;10.070;2024-02-16T04:03:26;6.78;;;3.78;;
22026;SDS011;11177;50.966;10.070;2024-02-16T04:05:53;7.28;;;4.07;;
22026;SDS011;11177;50.966;10.070;2024-02-16T04:08:21;7.55;;;4.03;;
22026;SDS011;11177;50.966;10.070;2024-02-16T04:10:48;11.48;;;4.03;;
22026;SDS011;11177;50.966;10.070;2024-02-16T04:13:17;8.60;;;4.18;;
22026;SDS011;11177;50.966;10.070;2024-02-16T04:15:44;4.93;;;3.50;;
22026;SDS011;11177;50.966;10.070;2024-02-16T04:18:12;5.45;;;3.80;;
22026;SDS011;11177;50.966;10.070;2024-02-16T04:20:39;5.47;;;4.07;;
22026;SDS011;11177;50.966;10.070;2024-02-16T04:23:07;11.85;;;4.47;;
22026;SDS011;11177;50.966;10.070;2024-02-16T04:25:34;7.13;;;4.07;;
22026;SDS011;11177;50.966;10.070;2024-02-16T04:28:02;6.28;;;4.13;;
22026;SDS011;11177;50.966;10.070;2024-02-16T04:30:32;4.75;;;4.03;;
22026;SDS011;11177;50.966;10.070;2024-02-16T04:32:59;6.65;;;4.20;;
22026;SDS011;11177;50.966;10.070;2024-02-16T04:35:27;7.82;;;4.28;;
22026;SDS011;11177;50.966;10.070;2024-02-16T04:37:54;6.50;;;4.47;;
22026;SDS011;11177;50.966;10.070;2024-02-16T04:40:20;7.10;;;4.15;;
22026;SDS011;11177;50.966;10.070;2024-02-16T04:42:47;8.88;;;4.63;;
22026;SDS011;11177;50.966;10.070;2024-02-16T04:45:14;7.63;;;4.13;;
22026;SDS011;11177;50.966;10.070;2024-02-16T04:47:41;8.15;;;4.28;;
22026;SDS011;11177;50.966;10.070;2024-02-16T04:50:08;9.05;;;4.72;;
22026;SDS011;11177;50.966;10.070;2024-02-16T04:52:38;6.85;;;4.63;;
22026;SDS011;11177;50.966;10.070;2024-02-16T04:55:07;5.90;;;4.20;;
22026;SDS011;11177;50.966;10.070;2024-02-16T04:57:34;5.05;;;4.30;;
22026;SDS011;11177;50.966;10.070;2024-02-16T05:00:02;5.43;;;4.57;;
22026;SDS011;11177;50.966;10.070;2024-02-16T05:02:30;6.40;;;4.82;;
22026;SDS011;11177;50.966;10.070;2024-02-16T05:04:57;12.25;;;5.25;;
22026;SDS011;11177;50.966;10.070;2024-02-16T05:07:34;7.43;;;5.28;;
22026;SDS011;11177;50.966;10.070;2024-02-16T05:10:03;11.60;;;5.45;;
22026;SDS011;11177;50.966;10.070;2024-02-16T05:12:40;7.45;;;5.35;;
22026;SDS011;11177;50.966;10.070;2024-02-16T05:15:08;8.00;;;5.00;;
22026;SDS011;11177;50.966;10.070;2024-02-16T05:17:36;9.27;;;5.65;;
22026;SDS011;11177;50.966;10.070;2024-02-16T05:20:05;6.63;;;4.90;;
22026;SDS011;11177;50.966;10.070;2024-02-16T05:22:36;7.68;;;5.32;;
22026;SDS011;11177;50.966;10.070;2024-02-16T05:25:03;10.98;;;5.57;;
22026;SDS011;11177;50.966;10.070;2024-02-16T05:27:31;8.07;;;5.18;;
22026;SDS011;11177;50.966;10.070;2024-02-16T05:29:58;9.52;;;5.63;;
22026;SDS011;11177;50.966;10.070;2024-02-16T05:32:25;7.72;;;5.68;;
22026;SDS011;11177;50.966;10.070;2024-02-16T05:34:53;9.35;;;5.65;;
22026;SDS011;11177;50.966;10.070;2024-02-16T05:37:21;10.63;;;5.28;;
22026;SDS011;11177;50.966;10.070;2024-02-16T05:39:48;10.95;;;5.30;;
22026;SDS011;11177;50.966;10.070;2024-02-16T05:42:34;7.47;;;5.32;;
22026;SDS011;11177;50.966;10.070;2024-02-16T05:45:02;9.07;;;5.30;;
22026;SDS011;11177;50.966;10.070;2024-02-16T05:47:29;7.35;;;5.15;;
22026;SDS011;11177;50.966;10.070;2024-02-16T05:49:56;9.07;;;5.43;;
22026;SDS011;11177;50.966;10.070;2024-02-16T05:52:26;7.15;;;5.25;;
22026;SDS011;11177;50.966;10.070;2024-02-16T05:54:53;9.43;;;5.30;;
22026;SDS011;11177;50.966;10.070;2024-02-16T05:57:23;8.52;;;5.82;;
22026;SDS011;11177;50.966;10.070;2024-02-16T05:59:51;7.60;;;5.20;;
22026;SDS011;11177;50.966;10.070;2024-02-16T06:02:20;7.75;;;5.47;;
22026;SDS011;11177;50.966;10.070;2024-02-16T06:04:46;11.70;;;5.55;;
22026;SDS011;11177;50.966;10.070;2024-02-16T06:07:13;6.93;;;4.90;;
22026;SDS011;11177;50.966;10.070;2024-02-16T06:09:43;9.27;;;5.35;;
22026;SDS011;11177;50.966;10.070;2024-02-16T06:12:10;8.20;;;5.18;;
22026;SDS011;11177;50.966;10.070;2024-02-16T06:14:39;8.52;;;5.45;;
22026;SDS011;11177;50.966;10.070;2024-02-16T06:17:06;11.65;;;6.13;;
22026;SDS011;11177;50.966;10.070;2024-02-16T06:19:35;8.57;;;5.97;;
22026;SDS011;11177;50.966;10.070;2024-02-16T06:22:02;9.15;;;6.47;;
22026;SDS011;11177;50.966;10.070;2024-02-16T06:24:32;9.10;;;6.00;;
22026;SDS011;11177;50.966;10.070;2024-02-16T06:26:59;9.85;;;6.20;;
22026;SDS011;11177;50.966;10.070;2024-02-16T06:29:26;8.52;;;6.40;;
22026;SDS011;11177;50.966;10.070;2024-02-16T06:31:53;9.57;;;6.15;;
22026;SDS011;11177;50.966;10.070;2024-02-16T06:34:20;7.55;;;6.00;;
22026;SDS011;11177;50.966;10.070;2024-02-16T06:36:48;9.70;;;6.32;;
22026;SDS011;11177;50.966;10.070;2024-02-16T06:39:15;10.07;;;6.88;;
22026;SDS011;11177;50.966;10.070;2024-02-16T06:41:44;11.15;;;6.78;;
22026;SDS011;11177;50.966;10.070;2024-02-16T06:44:12;10.32;;;7.00;;
22026;SDS011;11177;50.966;10.070;2024-02-16T06:46:40;11.40;;;7.15;;
22026;SDS011;11177;50.966;10.070;2024-02-16T06:49:07;13.02;;;7.03;;
22026;SDS011;11177;50.966;10.070;2024-02-16T06:51:35;14.10;;;7.65;;
22026;SDS011;11177;50.966;10.070;2024-02-16T06:54:04;11.52;;;7.05;;
22026;SDS011;11177;50.966;10.070;2024-02-16T06:56:31;11.38;;;6.80;;
22026;SDS011;11177;50.966;10.070;2024-02-16T06:58:59;8.85;;;7.00;;
22026;SDS011;11177;50.966;10.070;2024-02-16T07:01:26;8.73;;;6.75;;
22026;SDS011;11177;50.966;10.070;2024-02-16T07:03:54;13.40;;;7.13;;
22026;SDS011;11177;50.966;10.070;2024-02-16T07:06:21;10.70;;;6.70;;
22026;SDS011;11177;50.966;10.070;2024-02-16T07:08:48;11.02;;;7.28;;
22026;SDS011;11177;50.966;10.070;2024-02-16T07:11:15;10.38;;;6.82;;
22026;SDS011;11177;50.966;10.070;2024-02-16T07:13:43;12.60;;;6.55;;
22026;SDS011;11177;50.966;10.070;2024-02-16T07:16:10;10.43;;;6.47;;
22026;SDS011;11177;50.966;10.070;2024-02-16T07:18:37;9.38;;;6.60;;
22026;SDS011;11177;50.966;10.070;2024-02-16T07:21:04;9.23;;;6.82;;
22026;SDS011;11177;50.966;10.070;2024-02-16T07:23:31;10.20;;;7.32;;
22026;SDS011;11177;50.966;10.070;2024-02-16T07:26:01;10.50;;;6.97;;
22026;SDS011;11177;50.966;10.070;2024-02-16T07:28:33;14.10;;;7.20;;
22026;SDS011;11177;50.966;10.070;2024-02-16T07:31:00;9.55;;;6.60;;
22026;SDS011;11177;50.966;10.070;2024-02-16T07:33:27;8.88;;;6.50;;
22026;SDS011;11177;50.966;10.070;2024-02-16T07:35:56;8.60;;;6.22;;
22026;SDS011;11177;50.966;10.070;2024-02-16T07:38:23;9.65;;;6.55;;
22026;SDS011;11177;50.966;10.070;2024-02-16T07:40:50;12.60;;;6.82;;
22026;SDS011;11177;50.966;10.070;2024-02-16T07:43:17;9.93;;;6.25;;
22026;SDS011;11177;50.966;10.070;2024-02-16T07:45:45;7.97;;;5.97;;
22026;SDS011;11177;50.966;10.070;2024-02-16T07:48:13;11.40;;;6.68;;
22026;SDS011;11177;50.966;10.070;2024-02-16T07:50:40;14.02;;;6.40;;
22026;SDS011;11177;50.966;10.070;2024-02-16T07:53:10;10.18;;;6.63;;
22026;SDS011;11177;50.966;10.070;2024-02-16T07:55:44;11.18;;;6.47;;
22026;SDS011;11177;50.966;10.070;2024-02-16T07:58:11;7.75;;;6.20;;
22026;SDS011;11177;50.966;10.070;2024-02-16T08:00:39;10.00;;;6.25;;
22026;SDS011;11177;50.966;10.070;2024-02-16T08:03:06;12.27;;;6.70;;
22026;SDS011;11177;50.966;10.070;2024-02-16T08:05:33;9.57;;;6.22;;
22026;SDS011;11177;50.966;10.070;2024-02-16T08:08:00;8.38;;;5.53;;
22026;SDS011;11177;50.966;10.070;2024-02-16T08:10:27;8.88;;;5.30;;
22026;SDS011;11177;50.966;10.070;2024-02-16T08:12:54;7.45;;;5.70;;
22026;SDS011;11177;50.966;10.070;2024-02-16T08:15:21;8.68;;;5.50;;
22026;SDS011;11177;50.966;10.070;2024-02-16T08:17:56;8.85;;;5.70;;
22026;SDS011;11177;50.966;10.070;2024-02-16T08:20:31;7.43;;;5.07;;
22026;SDS011;11177;50.966;10.070;2024-02-16T08:23:01;10.32;;;5.68;;
22026;SDS011;11177;50.966;10.070;2024-02-16T08:25:28;5.70;;;4.97;;
22026;SDS011;11177;50.966;10.070;2024-02-16T08:27:57;7.78;;;5.28;;
22026;SDS011;11177;50.966;10.070;2024-02-16T08:30:24;6.68;;;5.03;;
22026;SDS011;11177;50.966;10.070;2024-02-16T08:32:52;7.82;;;5.45;;
22026;SDS011;11177;50.966;10.070;2024-02-16T08:35:19;6.38;;;4.88;;
22026;SDS011;11177;50.966;10.070;2024-02-16T08:37:47;10.35;;;7.20;;
22026;SDS011;11177;50.966;10.070;2024-02-16T08:40:17;13.93;;;8.40;;
22026;SDS011;11177;50.966;10.070;2024-02-16T08:42:44;11.35;;;6.30;;
22026;SDS011;11177;50.966;10.070;2024-02-16T08:45:11;10.18;;;6.00;;
22026;SDS011;11177;50.966;10.070;2024-02-16T08:47:39;7.60;;;5.32;;
22026;SDS011;11177;50.966;10.070;2024-02-16T08:50:07;7.03;;;4.72;;
22026;SDS011;11177;50.966;10.070;2024-02-16T08:52:38;7.20;;;5.18;;
22026;SDS011;11177;50.966;10.070;2024-02-16T08:55:05;7.72;;;5.22;;
22026;SDS011;11177;50.966;10.070;2024-02-16T08:57:33;8.38;;;5.10;;
22026;SDS011;11177;50.966;10.070;2024-02-16T09:00:00;6.18;;;4.32;;
22026;SDS011;11177;50.966;10.070;2024-02-16T09:02:28;8.30;;;5.55;;
22026;SDS011;11177;50.966;10.070;2024-02-16T09:04:55;11.10;;;5.95;;
22026;SDS011;11177;50.966;10.070;2024-02-16T09:07:22;18.50;;;12.85;;
22026;SDS011;11177;50.966;10.070;2024-02-16T09:09:51;13.68;;;8.38;;
22026;SDS011;11177;50.966;10.070;2024-02-16T09:12:25;10.48;;;7.38;;
22026;SDS011;11177;50.966;10.070;2024-02-16T09:14:52;9.35;;;5.78;;
22026;SDS011;11177;50.966;10.070;2024-02-16T09:17:19;10.10;;;6.35;;
22026;SDS011;11177;50.966;10.070;2024-02-16T09:19:47;7.80;;;6.18;;
22026;SDS011;11177;50.966;10.070;2024-02-16T09:22:17;6.15;;;5.18;;
22026;SDS011;11177;50.966;10.070;2024-02-16T09:24:44;7.72;;;5.38;;
22026;SDS011;11177;50.966;10.070;2024-02-16T09:27:13;7.90;;;5.20;;
22026;SDS011;11177;50.966;10.070;2024-02-16T09:29:46;7.95;;;5.80;;
22026;SDS011;11177;50.966;10.070;2024-02-16T09:32:14;8.88;;;5.53;;
22026;SDS011;11177;50.966;10.070;2024-02-16T09:34:42;8.35;;;5.70;;
22026;SDS011;11177;50.966;10.070;2024-02-16T09:37:10;7.32;;;5.25;;
22026;SDS011;11177;50.966;10.070;2024-02-16T09:39:44;7.47;;;4.97;;
22026;SDS011;11177;50.966;10.070;2024-02-16T09:42:11;8.02;;;5.53;;
22026;SDS011;11177;50.966;10.070;2024-02-16T09:44:51;11.10;;;5.70;;
22026;SDS011;11177;50.966;10.070;2024-02-16T09:47:22;10.05;;;5.25;;
22026;SDS011;11177;50.966;10.070;2024-02-16T09:49:53;6.13;;;5.28;;
22026;SDS011;11177;50.966;10.070;2024-02-16T09:52:24;9.45;;;5.35;;
22026;SDS011;11177;50.966;10.070;2024-02-16T09:54:51;8.63;;;6.18;;
22026;SDS011;11177;50.966;10.070;2024-02-16T09:57:19;9.93;;;6.22;;
22026;SDS011;11177;50.966;10.070;2024-02-16T09:59:51;7.88;;;4.95;;
22026;SDS011;11177;50.966;10.070;2024-02-16T10:02:18;6.18;;;4.60;;
22026;SDS011;11177;50.966;10.070;2024-02-16T10:04:54;6.05;;;4.30;;
22026;SDS011;11177;50.966;10.070;2024-02-16T10:07:35;6.88;;;4.30;;
22026;SDS011;11177;50.966;10.070;2024-02-16T10:10:03;7.22;;;4.25;;
22026;SDS011;11177;50.966;10.070;2024-02-16T10:12:31;7.13;;;4.00;;
22026;SDS011;11177;50.966;10.070;2024-02-16T10:14:58;6.18;;;4.03;;
22026;SDS011;11177;50.966;10.070;2024-02-16T10:17:27;4.72;;;4.03;;
22026;SDS011;11177;50.966;10.070;2024-02-16T10:19:58;7.28;;;4.05;;
22026;SDS011;11177;50.966;10.070;2024-02-16T10:22:26;7.97;;;4.53;;
22026;SDS011;11177;50.966;10.070;2024-02-16T10:24:54;8.50;;;4.57;;
22026;SDS011;11177;50.966;10.070;2024-02-16T10:27:21;7.38;;;5.35;;
22026;SDS011;11177;50.966;10.070;2024-02-16T10:29:49;7.45;;;4.90;;
22026;SDS011;11177;50.966;10.070;2024-02-16T10:32:21;7.97;;;4.57;;
22026;SDS011;11177;50.966;10.070;2024-02-16T10:34:55;6.60;;;4.68;;
22026;SDS011;11177;50.966;10.070;2024-02-16T10:37:25;8.02;;;4.30;;
22026;SDS011;11177;50.966;10.070;2024-02-16T10:39:53;5.28;;;4.10;;
22026;SDS011;11177;50.966;10.070;2024-02-16T10:42:24;5.10;;;3.50;;
22026;SDS011;11177;50.966;10.070;2024-02-16T10:44:53;4.85;;;3.67;;
22026;SDS011;11177;50.966;10.070;2024-02-16T10:47:22;6.32;;;3.30;;
22026;SDS011;11177;50.966;10.070;2024-02-16T10:49:53;5.22;;;3.47;;
22026;SDS011;11177;50.966;10.070;2024-02-16T10:52:20;5.53;;;3.40;;
22026;SDS011;11177;50.966;10.070;2024-02-16T10:54:53;5.65;;;3.47;;
22026;SDS011;11177;50.966;10.070;2024-02-16T10:57:23;5.43;;;3.35;;
22026;SDS011;11177;50.966;10.070;2024-02-16T10:59:54;4.97;;;3.30;;
22026;SDS011;11177;50.966;10.070;2024-02-16T11:02:28;4.78;;;3.40;;
22026;SDS011;11177;50.966;10.070;2024-02-16T11:04:59;5.10;;;3.28;;
22026;SDS011;11177;50.966;10.070;2024-02-16T11:07:27;4.90;;;3.28;;
22026;SDS011;11177;50.966;10.070;2024-02-16T11:09:55;4.28;;;2.83;;
22026;SDS011;11177;50.966;10.070;2024-02-16T11:12:32;4.63;;;2.88;;
22026;SDS011;11177;50.966;10.070;2024-02-16T11:15:01;7.43;;;3.20;;
22026;SDS011;11177;50.966;10.070;2024-02-16T11:17:28;4.07;;;2.90;;
22026;SDS011;11177;50.966;10.070;2024-02-16T11:19:56;5.28;;;2.90;;
22026;SDS011;11177;50.966;10.070;2024-02-16T11:22:29;4.60;;;3.00;;
22026;SDS011;11177;50.966;10.070;2024-02-16T11:24:59;4.35;;;3.10;;
22026;SDS011;11177;50.966;10.070;2024-02-16T11:27:30;6.40;;;3.30;;
22026;SDS011;11177;50.966;10.070;2024-02-16T11:29:59;4.13;;;3.42;;
22026;SDS011;11177;50.966;10.070;2024-02-16T11:32:27;4.80;;;3.72;;
22026;SDS011;11177;50.966;10.070;2024-02-16T11:34:54;6.93;;;4.53;;
22026;SDS011;11177;50.966;10.070;2024-02-16T11:37:21;6.85;;;4.95;;
22026;SDS011;11177;50.966;10.070;2024-02-16T11:39:54;9.05;;;4.10;;
22026;SDS011;11177;50.966;10.070;2024-02-16T11:42:26;5.72;;;4.35;;
22026;SDS011;11177;50.966;10.070;2024-02-16T11:44:55;5.00;;;3.80;;
22026;SDS011;11177;50.966;10.070;2024-02-16T11:47:24;6.53;;;3.45;;
22026;SDS011;11177;50.966;10.070;2024-02-16T11:50:05;4.93;;;3.30;;
22026;SDS011;11177;50.966;10.070;2024-02-16T11:52:48;3.97;;;2.95;;
22026;SDS011;11177;50.966;10.070;2024-02-16T11:55:17;3.80;;;2.40;;
22026;SDS011;11177;50.966;10.070;2024-02-16T11:58:01;5.63;;;2.70;;
22026;SDS011;11177;50.966;10.070;2024-02-16T12:00:32;6.00;;;2.60;;
22026;SDS011;11177;50.966;10.070;2024-02-16T12:03:06;6.18;;;2.22;;
22026;SDS011;11177;50.966;10.070;2024-02-16T12:05:35;5.10;;;2.08;;
22026;SDS011;11177;50.966;10.070;2024-02-16T12:08:02;3.30;;;1.90;;
22026;SDS011;11177;50.966;10.070;2024-02-16T12:10:37;3.90;;;1.90;;
22026;SDS011;11177;50.966;10.070;2024-02-16T12:13:06;3.10;;;1.70;;
22026;SDS011;11177;50.966;10.070;2024-02-16T12:15:34;3.92;;;1.70;;
22026;SDS011;11177;50.966;10.070;2024-02-16T12:18:01;3.70;;;2.30;;
22026;SDS011;11177;50.966;10.070;2024-02-16T12:20:29;6.25;;;1.98;;
22026;SDS011;11177;50.966;10.070;2024-02-16T12:22:58;3.65;;;2.20;;
22026;SDS011;11177;50.966;10.070;2024-02-16T12:25:41;7.85;;;2.20;;
22026;SDS011;11177;50.966;10.070;2024-02-16T12:28:13;4.30;;;2.10;;
22026;SDS011;11177;50.966;10.070;2024-02-16T12:30:41;5.10;;;2.00;;
22026;SDS011;11177;50.966;10.070;2024-02-16T12:33:08;3.13;;;2.00;;
22026;SDS011;11177;50.966;10.070;2024-02-16T12:35:41;3.20;;;2.13;;
22026;SDS011;11177;50.966;10.070;2024-02-16T12:38:17;3.45;;;2.05;;
22026;SDS011;11177;50.966;10.070;2024-02-16T12:40:49;3.13;;;2.10;;
22026;SDS011;11177;50.966;10.070;2024-02-16T12:43:16;4.38;;;2.20;;
22026;SDS011;11177;50.966;10.070;2024-02-16T12:45:45;4.43;;;2.00;;
22026;SDS011;11177;50.966;10.070;2024-02-16T12:48:12;3.42;;;2.08;;
22026;SDS011;11177;50.966;10.070;2024-02-16T12:50:44;3.25;;;1.90;;
22026;SDS011;11177;50.966;10.070;2024-02-16T12:53:15;3.90;;;2.25;;
22026;SDS011;11177;50.966;10.070;2024-02-16T12:55:42;3.38;;;2.33;;
22026;SDS011;11177;50.966;10.070;2024-02-16T12:58:10;4.90;;;2.15;;
22026;SDS011;11177;50.966;10.070;2024-02-16T13:00:40;2.95;;;2.03;;
22026;SDS011;11177;50.966;10.070;2024-02-16T13:03:07;2.70;;;2.05;;
22026;SDS011;11177;50.966;10.070;2024-02-16T13:05:35;4.47;;;2.38;;
22026;SDS011;11177;50.966;10.070;2024-02-16T13:08:29;6.30;;;2.35;;
22026;SDS011;11177;50.966;10.070;2024-02-16T13:10:59;6.03;;;2.70;;
22026;SDS011;11177;50.966;10.070;2024-02-16T13:13:26;3.78;;;2.40;;
22026;SDS011;11177;50.966;10.070;2024-02-16T13:15:53;5.78;;;2.40;;
22026;SDS011;11177;50.966;10.070;2024-02-16T13:18:26;5.05;;;2.40;;
22026;SDS011;11177;50.966;10.070;2024-02-16T13:20:58;5.28;;;2.65;;
22026;SDS011;11177;50.966;10.070;2024-02-16T13:23:26;4.25;;;2.35;;
22026;SDS011;11177;50.966;10.070;2024-02-16T13:25:55;5.95;;;2.45;;
22026;SDS011;11177;50.966;10.070;2024-02-16T13:28:22;6.35;;;2.58;;
22026;SDS011;11177;50.966;10.070;2024-02-16T13:30:49;5.57;;;2.33;;
22026;SDS011;11177;50.966;10.070;2024-02-16T13:33:16;7.38;;;3.00;;
22026;SDS011;11177;50.966;10.070;2024-02-16T13:35:47;10.55;;;4.00;;
22026;SDS011;11177;50.966;10.070;2024-02-16T13:38:15;11.02;;;5.20;;
22026;SDS011;11177;50.966;10.070;2024-02-16T13:40:42;7.00;;;2.90;;
22026;SDS011;11177;50.966;10.070;2024-02-16T13:43:09;6.43;;;2.42;;
22026;SDS011;11177;50.966;10.070;2024-02-16T13:45:47;4.60;;;2.40;;
22026;SDS011;11177;50.966;10.070;2024-02-16T13:48:19;4.57;;;2.50;;
22026;SDS011;11177;50.966;10.070;2024-02-16T13:50:47;4.07;;;2.13;;
22026;SDS011;11177;50.966;10.070;2024-02-16T13:53:18;4.00;;;2.30;;
22026;SDS011;11177;50.966;10.070;2024-02-16T13:55:49;6.93;;;2.53;;
22026;SDS011;11177;50.966;10.070;2024-02-16T13:58:17;6.20;;;2.22;;
22026;SDS011;11177;50.966;10.070;2024-02-16T14:00:46;5.47;;;2.10;;
22026;SDS011;11177;50.966;10.070;2024-02-16T14:03:16;6.28;;;3.13;;
22026;SDS011;11177;50.966;10.070;2024-02-16T14:05:44;3.97;;;2.30;;
22026;SDS011;11177;50.966;10.070;2024-02-16T14:08:16;4.90;;;2.35;;
22026;SDS011;11177;50.966;10.070;2024-02-16T14:10:44;6.32;;;2.83;;
22026;SDS011;11177;50.966;10.070;2024-02-16T14:13:11;3.92;;;2.55;;
22026;SDS011;11177;50.966;10.070;2024-02-16T14:15:38;3.75;;;2.38;;
22026;SDS011;11177;50.966;10.070;2024-02-16T14:18:05;4.90;;;2.53;;
22026;SDS011;11177;50.966;10.070;2024-02-16T14:20:47;4.50;;;2.67;;
22026;SDS011;11177;50.966;10.070;2024-02-16T14:23:14;6.00;;;3.30;;
22026;SDS011;11177;50.966;10.070;2024-02-16T14:25:41;6.88;;;2.80;;
22026;SDS011;11177;50.966;10.070;2024-02-16T14:28:08;5.03;;;2.92;;
22026;SDS011;11177;50.966;10.070;2024-02-16T14:30:38;5.72;;;2.60;;
22026;SDS011;11177;50.966;10.070;2024-02-16T14:33:07;5.53;;;2.42;;
22026;SDS011;11177;50.966;10.070;2024-02-16T14:35:34;5.63;;;2.47;;
22026;SDS011;11177;50.966;10.070;2024-02-16T14:38:06;3.55;;;2.47;;
22026;SDS011;11177;50.966;10.070;2024-02-16T14:40:34;5.13;;;2.90;;
22026;SDS011;11177;50.966;10.070;2024-02-16T14:43:09;4.32;;;3.15;;